Beemer, NE (68716)

11:14 AM CDT on April 26, 2017 (GMT -0500)
Skywave Wireless, Inc. | | Change Station
Active Advisory: Freeze Warning

Elev 1312 ft 41.84 °N, 96.71 °W | Updated 20 seconds ago

Overcast
Overcast
37.0 °F
Feels Like 37 °F
N
0.0
Wind Variable Wind from ENE
Gusts 0.0 mph

Today
High -- | Low -- °F
--% Chance of Precip.
Yesterday
High -- | Low -- °F
Precip. -- in
Pressure 29.68 in
Visibility 10.0 miles
Clouds Overcast 1100 ft
Windchill 37 °F
Dew Point 29 °F
Humidity 72%
Rainfall 0.00 in
Snow Depth Not available.
6:29 AM 8:20 PM
New Moon, 0% visible
METAR KLCG 261555Z AUTO 32017G24KT 10SM OVC011 02/01 A2968 RMK AO2 T00170008
Pressure 29.68 in
Visibility 10.0 miles
Clouds Overcast 1100 ft
Windchill 37 °F
Dew Point 29 °F
Humidity 72%
Rainfall 0.00 in
Snow Depth Not available.
6:29 AM 8:20 PM
New Moon, 0% visible
METAR KLCG 261555Z AUTO 32017G24KT 10SM OVC011 02/01 A2968 RMK AO2 T00170008

Get Your Daily Forecast Email!

Thanks for signing up!

Be on the lookout for a verification email in your inbox.

You'll start receiving severe weather alerts in your inbox..

×

10-Day Weather Forecast

Almanac

Astronomy

Apr. 26, 2017 Rise Set
Actual Time
Civil Twilight
Nautical Twilight
Astronomical Twilight
Moon
Length of Visible Light
Length of Day
Tomorrow will be .
, % of the Moon is Illuminated

Today's Extremes

State Highs State Lows

Community

WunderPhotos

WunderBlog® & News

Nearby

Air Quality

  Air Quality AQ Index Pollutant
Not available.

Snow Depth

Station Depth Elevation

Earthquake Activity

City Distance Mag. Time & Date
Minimum magnitude displayed is 2.5.

Coastal Water Temperatures

Place Temperature

Stations

Nearby Weather Stations

Station Location Temp. Windchill Dew Point Humidity Wind Precip. Elev Updated Type
                   

Watches & Warnings

Freeze Warning
Issued: 8:33 AM CDT Apr. 26, 2017 – National Weather Service

... Freeze warning in effect from midnight tonight to 9 am CDT
Thursday...

The National Weather Service in Omaha/valley has issued a freeze
warning, which is in effect from midnight tonight to 9 am CDT
Thursday. The frost advisory is no longer in effect.

* Temperature... widespread temperatures of 29 to 32 degrees are
expected, with colder temperatures possible in low-lying spots
and cold drainage areas.

* Impacts... sensitive outdoor vegetation may be damaged or killed
if left unprotected.

* Uncertainty... cloudier skies or winds remaining light instead of
calm would keep temperatures on the higher side of the
forecasted range, while calm and clear conditions for longer
periods would allow the colder temperatures to occur.

Precautionary/preparedness actions...

A freeze warning means sub-freezing temperatures are imminent or
highly likely. These conditions will kill crops and other
sensitive vegetation.